KBFI/BFI METAR and TAF weather

Enter ICAO airport designator
Station Type Date Time Source
KBFI METAR 2020/09/22 00:53 UTC NOAA

KBFI 220053Z 17006KT 10SM FEW090 SCT200 21/12 A2994 RMK AO2 SLP138 T02110117


Station Type Date Time Source
KBFI Decoded METAR 2020/09/22 00:53 UTC NOAA

SEATTLE BOEING FIELD, WA, United States (KBFI) 47-33N 122-19W 4M
Sep 21, 2020 - 08:53 PM EDT / 2020.09.22 0053 UTC
Wind: from the S (170 degrees) at 7 MPH (6 KT):0
Visibility: 10 mile(s):0
Sky conditions: partly cloudy
Temperature: 70.0 F (21.1 C)
Dew Point: 53.1 F (11.7 C)
Relative Humidity: 54%
Pressure (altimeter): 29.94 in. Hg (1013 hPa)
ob: KBFI 220053Z 17006KT 10SM FEW090 SCT200 21/12 A2994 RMK AO2 SLP138 T02110117
cycle: 1

Station Type Date Time Source
KBFI TAF 2020/09/21 21:48 UTC NOAA

TAF
AMD KBFI 212047Z 2121/2218 31005KT P6SM BKN080
FM220500 19004KT P6SM VCSH OVC080
FM221000 16003KT P6SM OVC022
FM221400 18003KT P6SM SCT005 OVC015

Example: see airport list